Warnsveld, Netherlands
Current Conditions -  °F | °C
As of 1:55 AM on Wednesday 22 Oct 2014 (Local Time) from EHDL Reporting Station
Light Rain Light Rain  
Wind Chill: 41°   Ceiling: 4000
Heat Index: 46°   Visibility: 6mi
Dew Point: 43°   Wind: 10mph
Humidity: 87%   Direction: 280°W
Pressure: 29.8"   Gusts: NA
Location:  52.14°N, 6.23°E
Report Text: EHDL 212355Z AUTO 28009KT 9999 -RA SCT036 BKN040 BKN053 08/06 Q1009 RERA BLU
Loading
Personal Weather Stations






























Interactive Weather Map
Tropical Storm Tracking
New forecast layout! Learn more

10-Day Weather Forecast

Advertisements
Track Severe Weather on mobile